createdAt,value
2018-03-16T00:02:06.372Z,26.93
2018-03-16T00:04:33.178Z,36.33
2018-03-16T00:06:59.945Z,26.40
2018-03-16T00:09:26.738Z,32.37
2018-03-16T00:11:54.427Z,28.77
2018-03-16T00:14:21.460Z,34.20
2018-03-16T00:16:48.258Z,27.97
2018-03-16T00:19:14.994Z,25.43
2018-03-16T00:21:41.745Z,30.43
2018-03-16T00:24:08.511Z,27.87
2018-03-16T00:26:35.270Z,28.87
2018-03-16T00:29:02.026Z,27.90
2018-03-16T00:31:28.774Z,27.33
2018-03-16T00:33:55.557Z,28.30
2018-03-16T00:36:22.345Z,27.77
2018-03-16T00:38:49.101Z,26.67
2018-03-16T00:41:15.860Z,27.93
2018-03-16T00:43:42.623Z,29.70
2018-03-16T00:46:09.426Z,29.77
2018-03-16T00:48:36.190Z,34.10
2018-03-16T00:51:02.935Z,30.27
2018-03-16T00:53:29.698Z,27.37
2018-03-16T00:55:56.535Z,28.23
2018-03-16T00:58:23.350Z,30.90
2018-03-16T01:00:50.141Z,31.43
2018-03-16T01:03:16.921Z,30.30
2018-03-16T01:05:43.740Z,30.97
2018-03-16T01:08:10.576Z,31.77
2018-03-16T01:10:37.319Z,30.17
2018-03-16T01:13:04.103Z,31.23
2018-03-16T01:15:30.875Z,31.33
2018-03-16T01:17:57.651Z,30.23
2018-03-16T01:20:24.446Z,29.50
2018-03-16T01:22:51.238Z,29.23
2018-03-16T01:25:18.028Z,27.53
2018-03-16T01:27:44.807Z,28.97
2018-03-16T01:30:11.591Z,32.33
2018-03-16T01:32:38.388Z,31.10
2018-03-16T01:35:05.171Z,30.73
2018-03-16T01:37:31.956Z,30.13
2018-03-16T01:39:58.735Z,31.33
2018-03-16T01:42:25.553Z,28.70
2018-03-16T01:44:52.334Z,31.70
2018-03-16T01:47:19.121Z,29.23
2018-03-16T01:49:45.908Z,31.30
2018-03-16T01:52:12.719Z,29.53
2018-03-16T01:54:39.442Z,30.90
2018-03-16T01:57:06.231Z,29.77
2018-03-16T01:59:32.958Z,31.80
2018-03-16T02:01:59.768Z,31.07
2018-03-16T02:04:26.655Z,36.13
2018-03-16T02:06:53.430Z,45.80
2018-03-16T02:09:20.213Z,32.90
2018-03-16T02:11:46.994Z,36.67
2018-03-16T02:14:13.786Z,34.87
2018-03-16T02:16:40.585Z,31.77
2018-03-16T02:19:07.396Z,34.67
2018-03-16T02:21:34.326Z,33.33
2018-03-16T02:24:01.138Z,32.13
2018-03-16T02:26:28.035Z,33.20
2018-03-16T02:28:54.818Z,32.23
2018-03-16T02:31:21.594Z,31.97
2018-03-16T02:33:48.392Z,32.03
2018-03-16T02:36:15.203Z,33.90
2018-03-16T02:38:42.007Z,32.40
2018-03-16T02:41:08.788Z,32.70
2018-03-16T02:43:35.572Z,31.30
2018-03-16T02:46:02.355Z,30.33
2018-03-16T02:48:29.213Z,32.20
2018-03-16T02:50:55.994Z,34.23
2018-03-16T02:53:22.783Z,30.20
2018-03-16T02:55:49.573Z,29.17
2018-03-16T02:58:16.371Z,32.13
2018-03-16T03:00:43.164Z,28.40
2018-03-16T03:03:09.946Z,30.37
2018-03-16T03:05:36.731Z,30.83
2018-03-16T03:08:03.527Z,30.70
2018-03-16T03:10:30.362Z,28.87
2018-03-16T03:12:57.140Z,33.57
2018-03-16T03:15:23.923Z,38.60
2018-03-16T03:17:50.663Z,30.80
2018-03-16T03:20:17.430Z,33.97
2018-03-16T03:22:44.209Z,30.70
2018-03-16T03:25:10.999Z,28.93
2018-03-16T03:27:37.774Z,31.23
2018-03-16T03:30:04.548Z,29.47
2018-03-16T03:32:31.335Z,31.80
2018-03-16T03:34:58.116Z,30.63
2018-03-16T03:37:24.875Z,30.23
2018-03-16T03:39:51.604Z,31.83
2018-03-16T03:42:18.371Z,33.43
2018-03-16T03:44:45.118Z,32.57
2018-03-16T03:47:11.873Z,30.90
2018-03-16T03:49:38.646Z,33.37
2018-03-16T03:52:05.373Z,30.37
2018-03-16T03:54:32.134Z,33.50
2018-03-16T03:56:58.896Z,33.13
2018-03-16T03:59:25.660Z,33.47
2018-03-16T04:01:52.418Z,29.97
2018-03-16T04:04:19.170Z,31.23
2018-03-16T04:06:46.066Z,34.10
2018-03-16T04:09:12.830Z,31.57
2018-03-16T04:11:39.607Z,32.83
2018-03-16T04:14:06.356Z,32.30
2018-03-16T04:16:33.145Z,31.73
2018-03-16T04:18:59.908Z,35.80
2018-03-16T04:21:26.675Z,32.60
2018-03-16T04:23:53.442Z,32.10
2018-03-16T04:26:20.201Z,31.07
2018-03-16T04:28:47.003Z,30.87
2018-03-16T04:31:13.762Z,32.90
2018-03-16T04:33:40.519Z,31.83
2018-03-16T04:36:07.322Z,32.30
2018-03-16T04:38:34.086Z,32.00
2018-03-16T04:41:00.838Z,34.07
2018-03-16T04:43:27.607Z,32.07
2018-03-16T04:45:54.405Z,34.90
2018-03-16T04:48:21.155Z,33.07
2018-03-16T04:50:47.920Z,35.67
2018-03-16T04:53:14.746Z,33.87
2018-03-16T04:55:41.476Z,33.77
2018-03-16T04:58:08.250Z,35.07
2018-03-16T05:00:34.997Z,36.17
2018-03-16T05:03:01.785Z,37.53
2018-03-16T05:05:28.538Z,39.57
2018-03-16T05:07:55.296Z,36.70
2018-03-16T05:10:22.102Z,36.53
2018-03-16T05:12:48.851Z,35.40
2018-03-16T05:15:15.624Z,36.30
2018-03-16T05:17:42.372Z,37.67
2018-03-16T05:20:09.126Z,42.63
2018-03-16T05:22:35.879Z,80.97
2018-03-16T05:25:03.193Z,62.97
2018-03-16T05:27:30.230Z,58.83
2018-03-16T05:29:57.854Z,56.97
2018-03-16T05:32:24.613Z,42.47
2018-03-16T05:34:51.380Z,53.77
2018-03-16T05:37:18.134Z,43.90
2018-03-16T05:39:44.928Z,46.40
2018-03-16T05:42:11.686Z,54.07
2018-03-16T05:44:38.473Z,41.47
2018-03-16T05:47:05.280Z,48.87
2018-03-16T05:49:32.036Z,38.47
2018-03-16T05:51:59.033Z,40.47
2018-03-16T05:54:25.813Z,38.37
2018-03-16T05:56:52.574Z,34.63
2018-03-16T05:59:19.342Z,38.77
2018-03-16T06:01:46.136Z,37.83
2018-03-16T06:04:12.894Z,40.93
2018-03-16T06:06:39.683Z,39.53
2018-03-16T06:09:06.443Z,40.10
2018-03-16T06:11:33.293Z,43.83
2018-03-16T06:14:00.029Z,39.87
2018-03-16T06:16:26.799Z,42.37
2018-03-16T06:18:53.793Z,37.53
2018-03-16T06:21:20.595Z,39.20
2018-03-16T06:23:47.378Z,34.30
2018-03-16T06:26:14.138Z,38.60
2018-03-16T06:28:40.932Z,36.80
2018-03-16T06:31:07.721Z,38.30
2018-03-16T06:33:34.478Z,32.17
2018-03-16T06:36:01.224Z,36.40
2018-03-16T06:38:28.009Z,38.60
2018-03-16T06:40:54.807Z,35.07
2018-03-16T06:43:21.611Z,38.20
2018-03-16T06:45:48.419Z,36.83
2018-03-16T06:48:15.182Z,41.67
2018-03-16T06:50:41.939Z,42.83
2018-03-16T06:53:08.727Z,37.53
2018-03-16T06:55:35.496Z,36.87
2018-03-16T06:58:02.256Z,37.60
2018-03-16T07:00:29.034Z,36.50
2018-03-16T07:02:55.790Z,36.10
2018-03-16T07:05:22.550Z,33.20
2018-03-16T07:07:49.338Z,36.30
2018-03-16T07:10:16.164Z,36.57
2018-03-16T07:12:42.991Z,33.40
2018-03-16T07:15:15.708Z,34.87
2018-03-16T07:17:42.494Z,35.77
2018-03-16T07:20:09.272Z,36.87
2018-03-16T07:22:36.098Z,36.87
2018-03-16T07:25:02.863Z,35.70
2018-03-16T07:27:29.647Z,34.17
2018-03-16T07:29:56.413Z,36.23
2018-03-16T07:32:23.181Z,37.77
2018-03-16T07:34:49.951Z,33.50
2018-03-16T07:37:16.731Z,33.03
2018-03-16T07:39:44.373Z,34.13
2018-03-16T07:42:11.147Z,34.57
2018-03-16T07:44:38.026Z,30.00
2018-03-16T07:47:04.875Z,31.67
2018-03-16T07:49:31.650Z,35.13
2018-03-16T07:51:58.406Z,33.17
2018-03-16T07:54:25.223Z,35.63
2018-03-16T07:56:53.340Z,30.80
2018-03-16T07:59:20.110Z,32.73
2018-03-16T08:01:46.929Z,30.17
2018-03-16T08:04:13.683Z,30.87
2018-03-16T08:06:44.216Z,29.87
2018-03-16T08:09:10.980Z,34.33
2018-03-16T08:11:37.782Z,28.80
2018-03-16T08:14:04.650Z,29.80
2018-03-16T08:16:31.435Z,35.50
2018-03-16T08:18:59.760Z,36.20
2018-03-16T08:21:26.657Z,31.90
2018-03-16T08:23:53.412Z,27.80
2018-03-16T08:26:33.993Z,29.93
2018-03-16T08:29:00.773Z,30.37
2018-03-16T08:31:27.609Z,38.47
2018-03-16T08:33:54.354Z,32.90
2018-03-16T08:36:21.099Z,32.50
2018-03-16T08:38:47.898Z,39.27
2018-03-16T08:41:15.214Z,33.03
2018-03-16T08:43:42.010Z,34.70
2018-03-16T08:46:08.764Z,34.93
2018-03-16T08:48:35.552Z,32.17
2018-03-16T08:51:02.321Z,31.30
2018-03-16T08:53:29.104Z,28.50
2018-03-16T08:55:55.853Z,29.37
2018-03-16T08:58:22.998Z,31.20
2018-03-16T09:00:49.927Z,32.20
2018-03-16T09:03:16.717Z,30.13
2018-03-16T09:05:43.594Z,30.57
2018-03-16T09:08:10.380Z,30.80
2018-03-16T09:10:37.342Z,30.93
2018-03-16T09:13:04.157Z,31.80
2018-03-16T09:15:31.126Z,33.83
2018-03-16T09:18:00.042Z,29.30
2018-03-16T09:20:26.806Z,29.03
2018-03-16T09:22:53.575Z,28.80
2018-03-16T09:25:20.345Z,30.10
2018-03-16T09:27:47.126Z,28.53
2018-03-16T09:30:13.895Z,30.53
2018-03-16T09:32:40.787Z,27.63
2018-03-16T09:35:07.544Z,30.20
2018-03-16T09:37:51.591Z,33.10
2018-03-16T09:40:21.933Z,30.60
2018-03-16T09:42:48.739Z,30.70
2018-03-16T09:45:16.731Z,29.73
2018-03-16T09:47:43.498Z,27.30
2018-03-16T09:50:10.260Z,30.60
2018-03-16T09:52:37.018Z,30.97
2018-03-16T09:55:09.526Z,30.50
2018-03-16T09:57:36.283Z,31.67
2018-03-16T10:00:03.084Z,61.90
2018-03-16T10:02:47.199Z,51.20
2018-03-16T10:05:13.979Z,43.57
2018-03-16T10:07:40.717Z,36.20
2018-03-16T10:10:07.520Z,38.70
2018-03-16T10:12:34.519Z,28.97
2018-03-16T10:15:01.321Z,30.57
2018-03-16T10:17:28.100Z,32.80
2018-03-16T10:19:55.863Z,31.50
2018-03-16T10:22:22.604Z,35.33
2018-03-16T10:24:49.413Z,31.17
2018-03-16T10:27:16.293Z,25.63
2018-03-16T10:29:43.054Z,29.90
2018-03-16T10:32:09.782Z,32.53
2018-03-16T10:34:36.632Z,98.30
2018-03-16T10:37:03.403Z,65.13
2018-03-16T10:39:30.811Z,39.43
2018-03-16T10:41:57.566Z,23.57
2018-03-16T10:44:24.293Z,27.37
2018-03-16T10:46:51.151Z,30.17
2018-03-16T10:49:18.370Z,24.33
2018-03-16T10:51:45.137Z,25.53
2018-03-16T10:54:11.923Z,27.27
2018-03-16T10:56:38.721Z,26.83
2018-03-16T10:59:05.761Z,26.47
2018-03-16T11:01:42.329Z,25.00
2018-03-16T11:04:19.958Z,24.73
2018-03-16T11:06:47.208Z,26.40
2018-03-16T11:09:14.321Z,41.03
2018-03-16T11:11:41.433Z,24.90
2018-03-16T11:14:08.195Z,32.53
2018-03-16T11:16:35.963Z,23.63
2018-03-16T11:19:02.726Z,24.00
2018-03-16T11:21:29.503Z,24.43
2018-03-16T11:23:56.294Z,27.53
2018-03-16T11:26:23.033Z,27.13
2018-03-16T11:28:49.773Z,50.07
2018-03-16T11:31:16.526Z,31.90
2018-03-16T11:33:43.293Z,20.63
2018-03-16T11:36:10.082Z,27.10
2018-03-16T11:38:36.832Z,29.00
2018-03-16T11:41:03.579Z,23.33
2018-03-16T11:43:30.333Z,28.73
2018-03-16T11:45:57.118Z,24.60
2018-03-16T11:48:23.853Z,25.87
2018-03-16T11:50:50.726Z,24.93
2018-03-16T11:53:17.484Z,15.80
2018-03-16T11:55:44.233Z,21.77
2018-03-16T11:58:10.978Z,20.27
2018-03-16T12:00:37.729Z,20.83
2018-03-16T12:03:05.044Z,23.63
2018-03-16T12:05:35.133Z,23.73
2018-03-16T12:08:01.876Z,25.63
2018-03-16T12:10:28.616Z,23.33
2018-03-16T12:12:55.383Z,21.30
2018-03-16T12:15:22.134Z,21.03
2018-03-16T12:17:49.018Z,19.20
2018-03-16T12:20:16.369Z,19.50
2018-03-16T12:22:43.462Z,26.90
2018-03-16T12:25:10.245Z,29.10
2018-03-16T12:27:47.106Z,56.00
2018-03-16T12:30:14.197Z,38.07
2018-03-16T12:32:40.938Z,32.40
2018-03-16T12:35:08.638Z,32.97
2018-03-16T12:37:35.393Z,28.27
2018-03-16T12:40:02.160Z,35.40
2018-03-16T12:44:55.672Z,20.40
2018-03-16T12:47:22.432Z,17.37
2018-03-16T12:49:49.241Z,25.70
2018-03-16T12:52:15.993Z,28.80
2018-03-16T12:54:42.753Z,30.80
2018-03-16T12:57:09.499Z,26.30
2018-03-16T12:59:36.237Z,26.57
2018-03-16T13:02:03.089Z,25.13
2018-03-16T13:04:29.843Z,21.77
2018-03-16T13:06:56.592Z,21.27
2018-03-16T13:09:28.226Z,19.43
2018-03-16T13:11:55.942Z,21.00
2018-03-16T13:14:24.523Z,22.00
2018-03-16T13:16:54.766Z,21.90
2018-03-16T13:19:21.526Z,24.77
2018-03-16T13:21:48.304Z,23.83
2018-03-16T13:24:15.086Z,19.87
2018-03-16T13:26:42.289Z,23.33
2018-03-16T13:29:10.080Z,18.33
2018-03-16T13:31:36.856Z,22.43
2018-03-16T13:34:03.598Z,25.27
2018-03-16T13:36:30.381Z,23.77
2018-03-16T13:38:57.167Z,19.60
2018-03-16T13:41:23.933Z,21.03
2018-03-16T13:43:50.720Z,21.27
2018-03-16T13:46:17.500Z,17.07
2018-03-16T13:48:44.280Z,17.47
2018-03-16T13:51:11.089Z,20.10
2018-03-16T13:53:38.228Z,23.17
2018-03-16T13:56:05.110Z,17.87
2018-03-16T13:58:40.832Z,19.37
2018-03-16T14:01:07.781Z,23.13
2018-03-16T14:03:36.822Z,23.50
2018-03-16T14:06:04.064Z,19.37
2018-03-16T14:08:30.817Z,20.37
2018-03-16T14:10:57.774Z,15.63
2018-03-16T14:13:24.517Z,19.77
2018-03-16T14:15:51.301Z,20.70
2018-03-16T14:18:18.438Z,19.37
2018-03-16T14:20:45.355Z,15.80
2018-03-16T14:23:12.133Z,13.23
2018-03-16T14:25:38.921Z,15.17
2018-03-16T14:28:05.777Z,13.53
2018-03-16T14:30:32.676Z,15.37
2018-03-16T14:32:59.431Z,18.37
2018-03-16T14:35:26.268Z,15.57
2018-03-16T14:37:53.032Z,13.27
2018-03-16T14:40:19.797Z,13.57
2018-03-16T14:42:46.583Z,14.60
2018-03-16T14:45:13.354Z,13.87
2018-03-16T14:47:40.112Z,7.80
2018-03-16T14:50:06.876Z,13.50
2018-03-16T14:52:33.610Z,14.23
2018-03-16T14:55:00.355Z,10.47
2018-03-16T14:57:27.128Z,13.17
2018-03-16T14:59:53.916Z,11.70
2018-03-16T15:02:20.698Z,10.30
2018-03-16T15:04:47.613Z,13.20
2018-03-16T15:07:14.450Z,7.97
2018-03-16T15:09:41.204Z,11.10
2018-03-16T15:12:08.004Z,11.20
2018-03-16T15:14:34.782Z,7.60
2018-03-16T15:17:01.641Z,7.70
2018-03-16T15:19:28.400Z,7.53
2018-03-16T15:21:55.164Z,9.33
2018-03-16T15:24:21.947Z,8.00
2018-03-16T15:26:49.320Z,11.87
2018-03-16T15:29:16.113Z,11.77
2018-03-16T15:31:42.877Z,8.93
2018-03-16T15:34:09.707Z,22.90
2018-03-16T15:36:36.849Z,15.10
2018-03-16T15:39:03.695Z,12.50
2018-03-16T15:41:31.430Z,10.13
2018-03-16T15:43:58.301Z,10.03
2018-03-16T15:46:26.008Z,8.03
2018-03-16T15:48:54.566Z,16.17
2018-03-16T15:51:29.176Z,8.50
2018-03-16T15:53:56.092Z,12.77
2018-03-16T15:56:22.942Z,16.97
2018-03-16T15:58:49.794Z,10.73
2018-03-16T16:01:16.661Z,8.07
2018-03-16T16:03:43.501Z,10.60
2018-03-16T16:06:10.318Z,5.30
2018-03-16T16:08:37.153Z,10.97
2018-03-16T16:11:04.056Z,13.40
2018-03-16T16:13:30.912Z,11.87
2018-03-16T16:15:57.783Z,9.63
2018-03-16T16:18:24.647Z,6.20
2018-03-16T16:20:51.514Z,9.80
2018-03-16T16:23:18.284Z,8.77
2018-03-16T16:25:45.352Z,7.67
2018-03-16T16:28:12.295Z,4.60
2018-03-16T16:30:39.156Z,7.20
2018-03-16T16:33:06.097Z,7.80
2018-03-16T16:35:32.927Z,5.37
2018-03-16T16:38:18.058Z,7.77
2018-03-16T16:40:46.717Z,10.40
2018-03-16T16:43:13.779Z,4.07
2018-03-16T16:45:40.654Z,12.67
2018-03-16T16:48:19.870Z,8.43
2018-03-16T16:50:51.480Z,7.40
2018-03-16T16:53:18.539Z,7.33
2018-03-16T16:56:06.688Z,6.70
2018-03-16T16:58:34.369Z,8.87
2018-03-16T17:01:02.563Z,4.80
2018-03-16T17:04:03.699Z,4.50
2018-03-16T17:06:47.706Z,10.57
2018-03-16T17:09:14.566Z,8.57
2018-03-16T17:11:42.065Z,4.60
2018-03-16T17:14:09.120Z,6.37
2018-03-16T17:16:36.953Z,6.00
2018-03-16T17:19:35.755Z,4.63
2018-03-16T17:22:32.320Z,7.07
2018-03-16T17:25:10.917Z,9.37
2018-03-16T17:27:42.438Z,3.50
2018-03-16T17:30:16.196Z,11.87
2018-03-16T17:32:47.842Z,6.80
2018-03-16T17:35:14.667Z,6.13
2018-03-16T17:37:43.009Z,10.10
2018-03-16T17:40:09.904Z,3.33
2018-03-16T17:42:36.785Z,5.37
2018-03-16T17:45:03.678Z,5.60
2018-03-16T17:47:34.218Z,9.27
2018-03-16T17:50:02.442Z,6.50
2018-03-16T17:52:39.379Z,6.67
2018-03-16T17:55:06.309Z,9.17
2018-03-16T17:57:33.103Z,6.60
2018-03-16T18:00:00.930Z,5.00
2018-03-16T18:02:27.846Z,7.83
2018-03-16T18:04:56.651Z,7.47
2018-03-16T18:07:23.579Z,4.03
2018-03-16T18:09:50.444Z,6.83
2018-03-16T18:12:17.487Z,3.30
2018-03-16T18:14:44.347Z,6.23
2018-03-16T18:17:11.159Z,4.30
2018-03-16T18:19:38.060Z,3.67
2018-03-16T18:22:05.386Z,4.30
2018-03-16T18:24:32.206Z,3.07
2018-03-16T18:26:59.002Z,7.33
2018-03-16T18:29:25.851Z,5.57
2018-03-16T18:31:52.635Z,2.53
2018-03-16T18:34:20.554Z,4.23
2018-03-16T18:36:48.874Z,2.93
2018-03-16T18:39:24.032Z,3.03
2018-03-16T18:41:50.883Z,5.90
2018-03-16T18:44:17.828Z,3.07
2018-03-16T18:46:44.671Z,3.83
2018-03-16T18:49:11.499Z,2.67
2018-03-16T18:51:38.361Z,2.50
2018-03-16T18:54:05.206Z,4.47
2018-03-16T18:56:32.203Z,5.50
2018-03-16T18:58:59.019Z,3.43
2018-03-16T19:01:25.848Z,5.63
2018-03-16T19:03:52.616Z,2.57
2018-03-16T19:06:19.380Z,3.00
2018-03-16T19:08:46.247Z,3.63
2018-03-16T19:11:13.210Z,3.60
2018-03-16T19:13:40.103Z,3.17
2018-03-16T19:16:07.050Z,2.80
2018-03-16T19:18:33.959Z,3.93
2018-03-16T19:21:04.484Z,4.03
2018-03-16T19:23:45.588Z,4.30
2018-03-16T19:26:13.220Z,4.33
2018-03-16T19:28:40.774Z,12.80
2018-03-16T19:31:15.370Z,4.47
2018-03-16T19:33:42.217Z,10.60
2018-03-16T19:36:20.285Z,5.87
2018-03-16T19:38:55.795Z,2.80
2018-03-16T19:41:52.226Z,4.37
2018-03-16T19:44:30.402Z,12.17
2018-03-16T19:47:05.343Z,14.03
2018-03-16T19:49:33.945Z,7.70
2018-03-16T19:52:01.521Z,4.80
2018-03-16T20:03:16.739Z,14.53
2018-03-16T20:05:44.200Z,5.97
2018-03-16T20:08:13.089Z,5.00
2018-03-16T20:10:39.991Z,4.43
2018-03-16T20:13:07.219Z,4.73
2018-03-16T20:15:35.172Z,1.93
2018-03-16T20:18:04.349Z,2.67
2018-03-16T20:20:32.709Z,4.40
2018-03-16T20:23:01.439Z,5.30
2018-03-16T20:25:33.029Z,4.00
2018-03-16T20:28:03.866Z,7.70
2018-03-16T20:30:31.858Z,10.80
2018-03-16T20:33:00.867Z,8.73
2018-03-16T20:35:29.343Z,9.47
2018-03-16T20:38:00.619Z,7.40
2018-03-16T20:40:28.528Z,10.47
2018-03-16T20:42:55.519Z,8.03
2018-03-16T20:45:23.908Z,7.27
2018-03-16T20:47:51.170Z,19.27
2018-03-16T20:50:18.395Z,6.20
2018-03-16T20:52:46.155Z,8.27
2018-03-16T20:55:13.044Z,5.17
2018-03-16T20:57:40.697Z,4.30
2018-03-16T21:00:07.580Z,5.40
2018-03-16T21:02:34.389Z,3.60
2018-03-16T21:05:01.219Z,7.77
2018-03-16T21:07:28.003Z,5.03
2018-03-16T21:09:54.846Z,8.53
2018-03-16T21:12:21.711Z,5.83
2018-03-16T21:14:48.571Z,4.20
2018-03-16T21:17:15.431Z,4.90
2018-03-16T21:19:42.290Z,5.90
2018-03-16T21:22:09.202Z,4.47
2018-03-16T21:24:36.039Z,7.83
2018-03-16T21:27:03.716Z,5.57
2018-03-16T21:29:30.638Z,6.73
2018-03-16T21:31:57.399Z,3.67
2018-03-16T21:34:24.252Z,7.57
2018-03-16T21:36:51.125Z,8.00
2018-03-16T21:39:17.998Z,11.10
2018-03-16T21:41:44.846Z,8.43
2018-03-16T21:44:11.681Z,8.27
2018-03-16T21:46:38.520Z,5.83
2018-03-16T21:49:05.376Z,5.87
2018-03-16T21:51:46.674Z,8.30
2018-03-16T21:54:13.728Z,6.07
2018-03-16T21:56:40.517Z,21.27
2018-03-16T21:59:07.424Z,10.23
2018-03-16T22:01:34.287Z,6.13
2018-03-16T22:04:01.117Z,8.07
2018-03-16T22:06:27.931Z,5.07
2018-03-16T22:08:54.738Z,5.67
2018-03-16T22:11:21.619Z,6.43
2018-03-16T22:13:48.488Z,7.60
2018-03-16T22:16:15.300Z,4.17
2018-03-16T22:18:43.645Z,8.23
2018-03-16T22:21:10.606Z,3.43
2018-03-16T22:23:37.478Z,5.77
2018-03-16T22:26:09.495Z,8.23
2018-03-16T22:28:36.420Z,6.67
2018-03-16T22:31:03.212Z,6.47
2018-03-16T22:33:30.130Z,5.43
2018-03-16T22:35:58.055Z,6.00
2018-03-16T22:38:25.341Z,4.83
2018-03-16T22:40:53.441Z,5.17
2018-03-16T22:43:20.280Z,3.93
2018-03-16T22:45:47.200Z,4.83
2018-03-16T22:48:14.126Z,4.13
2018-03-16T22:50:41.865Z,2.80
2018-03-16T22:53:08.716Z,4.57
2018-03-16T22:55:35.607Z,3.77
2018-03-16T22:58:02.474Z,5.43
2018-03-16T23:00:29.310Z,4.73
2018-03-16T23:02:56.122Z,3.53
2018-03-16T23:05:22.994Z,3.83
2018-03-16T23:07:50.043Z,2.83
2018-03-16T23:10:17.039Z,3.07
2018-03-16T23:12:44.806Z,3.13
2018-03-16T23:15:13.335Z,3.17
2018-03-16T23:17:40.125Z,3.77
2018-03-16T23:20:06.926Z,3.73
2018-03-16T23:22:33.707Z,3.03
2018-03-16T23:25:00.533Z,4.87
2018-03-16T23:27:27.404Z,4.33
2018-03-16T23:30:27.503Z,4.83
2018-03-16T23:32:54.551Z,3.33
2018-03-16T23:35:21.423Z,4.23
2018-03-16T23:37:56.355Z,3.70
2018-03-16T23:40:23.144Z,2.60
2018-03-16T23:48:44.678Z,2.67
2018-03-16T23:51:20.366Z,0.57
2018-03-16T23:53:47.422Z,5.23
2018-03-16T23:56:14.223Z,6.70
2018-03-16T23:58:41.094Z,4.63
